Terminal Aerodrome Forecast
Issued by NWS

Home | Current Version | Previous Version | Text Only | Print | Product List | Glossary On
Versions: 1 2 3 4 5 6 7 8 9 10 11 12
000
FTUS43 KILX 310527
TAFDEC
TAF
KDEC 310527Z 3106/0106 20005KT P6SM SKC
     FM310800 19004KT 4SM BR SKC
     FM311100 20005KT 2SM BR SCT015
     FM311500 21007KT 5SM HZ BKN015
     FM311800 21010KT P6SM SCT025
     FM010100 18006KT P6SM FEW025=

USA.gov is the U.S. government's official web portal to all federal, state and local government web resources and services.